Flight Track Log - Related Links

Times and Time Zones

All times are in EDT time to prevent confusion due to time zone crossing. See the N550JG flight status page for this flight to view local times or setup timezone preferences in your user account.

Time Position Orientation Groundspeed Altitude Reporting Facility
EDT Latitude Longitude Course Direction KTS MPH feet Rate Location/Type
Fri 06:35:46 PM 30.0656 -82.5303 170° South 140 161 3,500  Level Jacksonville Center
Fri 06:36:29 PM 30.0447 -82.5278 174° South 103 119 4,000 600 Climbing Jacksonville Center
Fri 06:36:46 PM 30.0383 -82.5256 163° South 123 142 4,100 545 Climbing Jacksonville Center
Fri 06:37:46 PM 30.0092 -82.5183 168° South 113 130 4,700 581 Climbing Jacksonville Center
Fri 06:37:48 PM 30.0092 -82.5183 168° South 102 117 4,700 571 Level Jacksonville Center
Fri 06:38:49 PM 29.9819 -82.5089 163° South 102 117 5,300 508 Climbing Jacksonville Center
Fri 06:39:46 PM 29.9611 -82.4994 159° South 108 124 5,700 492 Climbing Jacksonville Center
Fri 06:39:50 PM 29.9547 -82.4994 180° South 102 117 5,800 563 Climbing Jacksonville Center
Fri 06:40:00 PM 29.9522 -82.5294 170° South  Level Estimated
Fri 06:40:50 PM 29.9236 -82.4900 165° South 103 119 6,300  Level Jacksonville Center
Fri 06:41:46 PM 29.9025 -82.4806 159° South 108 124 6,600 358 Climbing Jacksonville Center
Fri 06:41:57 PM 29.8942 -82.4781 165° South 106 122 6,700 400 Climbing Jacksonville Center
Fri 06:42:46 PM 29.8753 -82.4686 157° South 108 124 7,000 290 Climbing Jacksonville Center
Fri 06:42:59 PM 29.8650 -82.4686 180° South 108 124 7,000  Level Jacksonville Center
Fri 06:43:46 PM 29.8419 -82.4567 156° South 108 124 7,000  Level Jacksonville Center
Fri 06:44:05 PM 29.8253 -82.4544 173° South 142 163 7,000  Level Jacksonville Center
Fri 06:44:46 PM 29.8022 -82.4450 160° South 127 146 7,000  Level Jacksonville Center
Fri 06:45:06 PM 29.7856 -82.4428 173° South 146 168 7,000  Level Jacksonville Center
Fri 06:45:46 PM 29.7647 -82.4308 154° Southeast 138 159 7,000  Level Jacksonville Center
Fri 06:46:07 PM 29.7478 -82.4286 174° South 143 165 7,000  Level Jacksonville Center
Fri 06:47:08 PM 29.7081 -82.4167 165° South 135 155 7,000 -49 Level Jacksonville Center
Fri 06:48:09 PM 29.6706 -82.4003 159° South 138 159 6,900  Descending Jacksonville Center
Fri 06:49:10 PM 29.6331 -82.3883 165° South 142 163 7,000 49 Climbing Jacksonville Center
Fri 06:50:11 PM 29.5933 -82.3742 163° South 146 168 7,000  Level Jacksonville Center
Fri 06:51:12 PM 29.5578 -82.3625 164° South 141 162 7,000  Level Jacksonville Center
Fri 06:52:01 PM 29.5242 -82.3531 166° South 140 161 7,000  Level Jacksonville Center
Fri 06:53:13 PM 29.4803 -82.3344 160° South 140 161 7,000  Level Jacksonville Center
Fri 06:54:08 PM 29.4447 -82.3225 164° South 140 161 7,000  Level Jacksonville Center
Fri 06:55:09 PM 29.4114 -82.3108 163° South 137 158 7,000  Level Jacksonville Center
Fri 06:56:10 PM 29.3736 -82.2992 165° South 139 160 7,000  Level Jacksonville Center
Fri 06:57:11 PM 29.3339 -82.2853 163° South 140 161 7,000  Level Jacksonville Center
Fri 06:58:12 PM 29.2964 -82.2711 162° South 141 162 7,000  Level Jacksonville Center
Fri 06:59:13 PM 29.2586 -82.2594 165° South 140 161 7,000  Level Jacksonville Center
Fri 07:00:14 PM 29.2211 -82.2453 162° South 145 167 7,000  Level Jacksonville Center
Fri 07:01:15 PM 29.1814 -82.2336 166° South 144 166 7,000  Level Jacksonville Center
Fri 07:02:15 PM 29.1394 -82.2244 169° South 144 166 7,000  Level Jacksonville Center
Fri 07:03:16 PM 29.0997 -82.2178 172° South 146 168 7,000 -155 Level Jacksonville Center
Fri 07:04:11 PM 29.0622 -82.2108 171° South 145 167 6,700  Descending Jacksonville Center
Fri 07:05:12 PM 29.0225 -82.2039 171° South 144 166 7,000 148 Climbing Jacksonville Center
Fri 07:06:13 PM 28.9828 -82.1972 172° South 142 163 7,000  Level Jacksonville Center
Fri 07:07:14 PM 28.9453 -82.1903 171° South 142 163 7,000  Level Jacksonville Center
Fri 07:08:09 PM 28.9097 -82.1811 167° South 139 160 7,000  Level Jacksonville Center
Fri 07:09:09 PM 28.8722 -82.1764 174° South 140 161 7,000  Level Jacksonville Center
Fri 07:11:14 PM 28.8000 -82.1667 173° South 139 160 7,000  Level Tampa TRACON
Fri 07:12:14 PM 28.7500 -82.1500 164° South 141 162 7,000  Level Tampa TRACON
Fri 07:13:14 PM 28.7167 -82.1500 180° South 143 165 7,000  Level Tampa TRACON
Fri 07:14:14 PM 28.6667 -82.1333 164° South 143 165 7,000  Level Tampa TRACON
Fri 07:15:14 PM 28.6333 -82.1333 180° South 144 166 7,000  Level Tampa TRACON
Fri 07:16:14 PM 28.6000 -82.1333 180° South 142 163 7,000  Level Tampa TRACON
Fri 07:17:14 PM 28.5500 -82.1167 164° South 139 160 7,000  Level Tampa TRACON
Fri 07:18:14 PM 28.5167 -82.1167 180° South 139 160 7,000  Level Tampa TRACON
Fri 07:19:14 PM 28.4833 -82.1000 156° South 141 162 7,000  Level Tampa TRACON
Fri 07:20:14 PM 28.4500 -82.1000 180° South 141 162 7,000  Level Tampa TRACON
Fri 07:21:14 PM 28.4000 -82.1000 180° South 142 163 7,000  Level Tampa TRACON
Fri 07:22:20 PM 28.3500 -82.0833 164° South 142 163 7,000  Level Tampa TRACON
Fri 07:23:20 PM 28.3167 -82.0833 180° South 144 166 7,000  Level Tampa TRACON
Fri 07:24:14 PM 28.2833 -82.0667 156° South 141 162 7,000  Level Tampa TRACON
Fri 07:25:14 PM 28.2500 -82.0667 180° South 141 162 7,000  Level Tampa TRACON
Fri 07:26:14 PM 28.2000 -82.0500 164° South 144 166 7,000  Level Tampa TRACON
Fri 07:27:14 PM 28.1667 -82.0500 180° South 143 165 7,000  Level Tampa TRACON
Fri 07:28:14 PM 28.1333 -82.0500 180° South 143 165 7,000  Level Tampa TRACON
Fri 07:29:20 PM 28.0833 -82.0333 164° South 143 165 7,000  Level Tampa TRACON
Fri 07:30:20 PM 28.0500 -82.0333 180° South 144 166 7,000  Level Tampa TRACON
Fri 07:31:15 PM 28.0000 -82.0167 164° South 140 161 7,000  Level Tampa TRACON
Fri 07:32:15 PM 27.9667 -82.0167 180° South 138 159 7,000  Level Tampa TRACON
Fri 07:34:28 PM 27.8831 -81.9986 169° South 127 146 7,000  Level Miami Center
Fri 07:35:28 PM 27.8417 -81.9919 172° South 147 169 7,000  Level Miami Center
Fri 07:36:28 PM 27.8044 -81.9833 168° South 152 175 7,000  Level Miami Center
Fri 07:37:28 PM 27.7633 -81.9675 161° South 153 176 7,000  Level Miami Center
Fri 07:38:28 PM 27.7242 -81.9492 157° South 148 170 7,000  Level Miami Center
Fri 07:39:28 PM 27.6894 -81.9314 156° South 148 170 7,000  Level Miami Center
Fri 07:40:28 PM 27.6522 -81.9181 162° South 148 170 7,000  Level Miami Center
Fri 07:41:28 PM 27.6175 -81.9000 155° Southeast 148 170 7,000  Level Miami Center
Fri 07:42:28 PM 27.5764 -81.8817 158° South 148 170 7,000  Level Miami Center
Fri 07:43:28 PM 27.5372 -81.8661 161° South 148 170 7,000  Level Miami Center
Fri 07:44:28 PM 27.5022 -81.8506 158° South 148 170 7,000  Level Miami Center
Fri 07:45:28 PM 27.4633 -81.8325 158° South 148 170 7,000  Level Miami Center
Fri 07:46:28 PM 27.4283 -81.8192 161° South 148 170 7,000  Level Miami Center
Fri 07:47:28 PM 27.3844 -81.8219 183° South 148 170 7,000  Level Miami Center
Fri 07:48:28 PM 27.3531 -81.8231 182° South 148 170 7,000  Level Miami Center
Fri 07:49:28 PM 27.3008 -81.8208 178° South 148 170 7,000  Level Miami Center
Fri 07:50:40 PM 27.2489 -81.8186 178° South 154 177 7,000  Level Miami Center
Fri 07:51:40 PM 27.2072 -81.8167 178° South 159 183 7,000  Level Miami Center
Fri 07:52:40 PM 27.1633 -81.8147 178° South 159 183 7,000  Level Miami Center
Fri 07:53:40 PM 27.1239 -81.8131 178° South 159 183 7,000  Level Miami Center
Fri 07:54:40 PM 27.0800 -81.8111 178° South 159 183 7,000  Level Miami Center
Fri 07:55:40 PM 27.0383 -81.8119 181° South 159 183 7,000  Level Miami Center
Fri 07:57:00 PM 27.0367 -81.7523 92° East  Level FlightAware Approximate
Fri 08:04:00 PM 26.8295 -81.6625 187° South  Level FlightAware Approximate
Fri 08:05:00 PM 26.7900 -81.6682 187° South  Level FlightAware Approximate
Fri 08:06:00 PM 26.7505 -81.6738 187° South  Level FlightAware Approximate
Fri 08:07:00 PM 26.7110 -81.6795 187° South  Level FlightAware Approximate
Fri 08:08:00 PM 26.6714 -81.6851 187° South  Level FlightAware Approximate
Fri 08:09:00 PM 26.6319 -81.6907 187° South  Level FlightAware Approximate
Fri 08:10:00 PM 26.5924 -81.6963 187° South  Level FlightAware Approximate
Fri 08:11:00 PM 26.5531 -81.7034 193° South  Level FlightAware Approximate
Fri 08:12:00 PM 26.5142 -81.7131 193° South  Level FlightAware Approximate
Fri 08:13:00 PM 26.4747 -81.7167 180° South  Level FlightAware Approximate
Fri 08:14:00 PM 26.4349 -81.7167 180° South  Level FlightAware Approximate
Fri 08:15:00 PM 26.3953 -81.7206 189° South  Level FlightAware Approximate
Fri 08:16:00 PM 26.3560 -81.7277 189° South  Level FlightAware Approximate
Fri 08:17:00 PM 26.3167 -81.7348 189° South  Level FlightAware Approximate
Fri 08:18:00 PM 26.2774 -81.7420 189° South  Level FlightAware Approximate
Fri 08:19:00 PM 26.2381 -81.7491 189° South  Level FlightAware Approximate
Fri 08:20:00 PM 26.1989 -81.7569 190° South  Level FlightAware Approximate
Fri 08:21:00 PM 26.1596 -81.7647 190° South  Level FlightAware Approximate
Fri 08:22:00 PM 26.1500 -81.7667 190° South  Level FlightAware Approximate
Fri 08:23:00 PM 26.1524 -81.7756 190° South  Level Estimated
Fri 08:24:00 PM 26.1524 -81.7756 190° South  Level Estimated
Fri 08:25:00 PM 26.1524 -81.7756 190° South  Level Estimated

Login

Don't have an account? Register now (free) for customized features, flight alerts, and more!